Time;durP1;ratioP1;P1;durP2;ratioP2;P2;SDS_P1;SDS_P2;PMS_P1;PMS_P2;Temp;Humidity;BMP_temperature;BMP_pressure;BME280_temperature;BME280_humidity;BME280_pressure;Samples;Min_cycle;Max_cycle;Signal;HPM_P1;HPM_P2
2023/12/03 00:00:43;;;;;;;11.70;4.73;;;;;;;;;;5095220;28;20248;-76
2023/12/03 00:03:30;;;;;;;10.80;4.00;;;;;;;;;;5095271;28;20238;-76
2023/12/03 00:05:57;;;;;;;11.73;3.83;;;;;;;;;;5096407;28;20533;-76
2023/12/03 00:08:24;;;;;;;11.63;3.87;;;;;;;;;;5096336;28;20205;-76
2023/12/03 00:11:07;;;;;;;13.00;4.80;;;;;;;;;;5095115;28;20229;-76
2023/12/03 00:13:34;;;;;;;7.67;2.70;;;;;;;;;;5095087;28;20217;-76
2023/12/03 00:16:01;;;;;;;10.83;4.67;;;;;;;;;;5096394;28;20198;-77
2023/12/03 00:18:29;;;;;;;5.67;3.90;;;;;;;;;;5095976;28;20207;-76
2023/12/03 00:20:57;;;;;;;8.63;3.67;;;;;;;;;;5096186;28;20232;-77
2023/12/03 00:23:24;;;;;;;12.17;4.40;;;;;;;;;;5094747;28;20252;-77
2023/12/03 00:25:51;;;;;;;8.90;3.77;;;;;;;;;;5095904;28;20187;-77
2023/12/03 00:28:18;;;;;;;8.73;3.47;;;;;;;;;;5078927;28;20203;-77
2023/12/03 00:30:45;;;;;;;13.93;5.03;;;;;;;;;;5075535;28;20227;-77
2023/12/03 00:33:12;;;;;;;19.03;4.87;;;;;;;;;;5075565;28;20644;-77
2023/12/03 00:35:39;;;;;;;9.10;3.77;;;;;;;;;;5074403;28;20223;-76
2023/12/03 00:38:06;;;;;;;12.27;5.13;;;;;;;;;;5075662;28;20604;-76
2023/12/03 00:40:34;;;;;;;10.10;4.07;;;;;;;;;;5075303;28;20211;-77
2023/12/03 00:43:01;;;;;;;11.17;4.90;;;;;;;;;;5094687;28;20640;-76
2023/12/03 00:45:28;;;;;;;12.07;4.63;;;;;;;;;;5094811;28;20660;-77
2023/12/03 00:47:55;;;;;;;9.77;3.73;;;;;;;;;;5095394;28;20211;-76
2023/12/03 00:50:22;;;;;;;13.37;4.60;;;;;;;;;;5095063;28;20214;-77
2023/12/03 00:52:49;;;;;;;14.77;6.07;;;;;;;;;;5095567;28;20522;-76
2023/12/03 00:55:17;;;;;;;8.53;3.97;;;;;;;;;;5095410;28;20639;-76
2023/12/03 00:57:47;;;;;;;11.67;3.30;;;;;;;;;;5095818;28;20609;-76
2023/12/03 01:00:15;;;;;;;11.73;3.90;;;;;;;;;;5094082;28;20290;-76
2023/12/03 01:02:42;;;;;;;12.03;4.97;;;;;;;;;;5095168;28;20207;-76
2023/12/03 01:05:09;;;;;;;7.83;3.83;;;;;;;;;;5094017;28;20252;-76
2023/12/03 01:07:36;;;;;;;4.77;2.53;;;;;;;;;;5095347;28;20198;-76
2023/12/03 01:10:04;;;;;;;18.57;4.57;;;;;;;;;;5095474;28;20218;-77
2023/12/03 01:12:31;;;;;;;10.50;4.33;;;;;;;;;;5095134;28;20227;-77
2023/12/03 01:14:58;;;;;;;13.90;4.40;;;;;;;;;;5095459;28;20187;-76
2023/12/03 01:17:25;;;;;;;6.20;3.03;;;;;;;;;;5095027;28;20540;-77
2023/12/03 01:19:52;;;;;;;14.03;4.00;;;;;;;;;;5094918;28;20214;-76
2023/12/03 01:22:19;;;;;;;7.57;3.70;;;;;;;;;;5095014;28;20298;-76
2023/12/03 01:24:46;;;;;;;14.60;3.70;;;;;;;;;;5094868;28;20239;-76
2023/12/03 01:27:13;;;;;;;5.20;2.87;;;;;;;;;;5094696;28;20203;-77
2023/12/03 01:29:42;;;;;;;6.07;2.77;;;;;;;;;;5094804;28;20199;-76
2023/12/03 01:32:09;;;;;;;9.00;3.73;;;;;;;;;;5093446;28;20217;-77
2023/12/03 01:34:36;;;;;;;16.37;4.57;;;;;;;;;;5094807;28;20663;-76
2023/12/03 01:37:03;;;;;;;15.03;3.63;;;;;;;;;;5094837;28;20557;-76
2023/12/03 01:39:30;;;;;;;6.67;3.67;;;;;;;;;;5093378;28;20207;-77
2023/12/03 01:41:57;;;;;;;7.60;3.47;;;;;;;;;;5094920;28;20197;-76
2023/12/03 01:44:25;;;;;;;12.07;3.70;;;;;;;;;;5094710;28;20199;-77
2023/12/03 01:46:52;;;;;;;6.47;3.27;;;;;;;;;;5094689;28;20678;-77
2023/12/03 01:49:19;;;;;;;9.43;3.57;;;;;;;;;;5093422;28;20640;-77
2023/12/03 01:51:46;;;;;;;7.53;3.90;;;;;;;;;;5094589;28;20211;-77
2023/12/03 01:54:14;;;;;;;13.17;3.93;;;;;;;;;;5093749;28;20199;-77
2023/12/03 01:56:41;;;;;;;14.07;3.83;;;;;;;;;;5093071;28;20191;-77
2023/12/03 01:59:09;;;;;;;8.73;3.60;;;;;;;;;;5094361;28;20202;-77
2023/12/03 02:01:36;;;;;;;7.87;3.57;;;;;;;;;;5092912;28;20545;-77
2023/12/03 02:04:03;;;;;;;13.60;3.53;;;;;;;;;;5092537;28;20226;-77
2023/12/03 02:06:30;;;;;;;13.53;3.97;;;;;;;;;;5088634;28;20198;-77
2023/12/03 02:08:57;;;;;;;9.23;3.43;;;;;;;;;;5074153;28;20195;-77
2023/12/03 02:11:25;;;;;;;9.67;3.80;;;;;;;;;;5073093;28;20262;-77
2023/12/03 02:13:52;;;;;;;9.67;3.70;;;;;;;;;;5073661;28;20191;-77
2023/12/03 02:16:21;;;;;;;14.67;4.30;;;;;;;;;;5073622;28;20207;-77
2023/12/03 02:18:48;;;;;;;9.37;3.80;;;;;;;;;;5073362;28;20211;-77
2023/12/03 02:21:15;;;;;;;10.87;5.23;;;;;;;;;;5073699;28;20207;-77
2023/12/03 02:23:42;;;;;;;13.63;4.87;;;;;;;;;;5073745;28;20234;-76
2023/12/03 02:26:09;;;;;;;9.37;3.63;;;;;;;;;;5073616;28;20205;-77
2023/12/03 02:28:36;;;;;;;16.17;5.13;;;;;;;;;;5073609;28;20200;-77
2023/12/03 02:31:04;;;;;;;9.00;3.77;;;;;;;;;;5073554;28;20215;-77
2023/12/03 02:33:31;;;;;;;7.87;3.47;;;;;;;;;;5073703;28;20229;-77
2023/12/03 02:35:59;;;;;;;10.33;4.40;;;;;;;;;;5073624;28;20195;-77
2023/12/03 02:38:27;;;;;;;12.90;3.77;;;;;;;;;;5054786;28;20257;-77
2023/12/03 02:40:56;;;;;;;16.00;4.50;;;;;;;;;;5073432;28;20698;-77
2023/12/03 02:43:24;;;;;;;18.53;6.17;;;;;;;;;;5072349;28;20206;-77
2023/12/03 02:45:51;;;;;;;11.60;5.17;;;;;;;;;;5073797;28;20203;-77
2023/12/03 02:48:18;;;;;;;14.10;6.07;;;;;;;;;;5072186;28;20214;-77
2023/12/03 02:50:46;;;;;;;14.73;4.70;;;;;;;;;;5073270;28;20195;-77
2023/12/03 02:53:13;;;;;;;18.43;4.97;;;;;;;;;;5073371;28;20261;-77
2023/12/03 02:55:40;;;;;;;19.73;6.57;;;;;;;;;;5073280;28;20203;-77
2023/12/03 02:58:08;;;;;;;16.93;6.10;;;;;;;;;;5073516;28;20199;-76
2023/12/03 03:00:35;;;;;;;19.37;5.87;;;;;;;;;;5073372;28;20187;-76
2023/12/03 03:03:02;;;;;;;16.17;6.13;;;;;;;;;;5072118;28;20267;-76
2023/12/03 03:05:29;;;;;;;9.83;5.17;;;;;;;;;;5073283;28;20195;-76
2023/12/03 03:07:56;;;;;;;18.27;5.87;;;;;;;;;;5073365;28;20199;-77
2023/12/03 03:10:23;;;;;;;11.27;4.93;;;;;;;;;;5073072;28;20313;-76
2023/12/03 03:12:51;;;;;;;17.37;6.03;;;;;;;;;;5071908;28;20219;-76
2023/12/03 03:15:18;;;;;;;18.00;6.57;;;;;;;;;;5073288;28;20195;-76
2023/12/03 03:17:45;;;;;;;22.03;6.83;;;;;;;;;;5073220;28;20662;-77
2023/12/03 03:20:12;;;;;;;17.47;5.47;;;;;;;;;;5072919;28;20242;-77
2023/12/03 03:22:39;;;;;;;16.60;6.70;;;;;;;;;;5073250;28;20200;-77
2023/12/03 03:25:07;;;;;;;20.97;5.87;;;;;;;;;;5072691;28;20224;-77
2023/12/03 03:27:35;;;;;;;14.70;5.73;;;;;;;;;;5073254;28;20249;-77
2023/12/03 03:30:02;;;;;;;18.23;5.93;;;;;;;;;;5072945;28;20205;-77
2023/12/03 03:32:29;;;;;;;17.30;6.30;;;;;;;;;;5073150;28;20664;-77
2023/12/03 03:34:56;;;;;;;21.83;7.50;;;;;;;;;;5072990;28;20195;-77
2023/12/03 03:37:23;;;;;;;15.80;6.53;;;;;;;;;;5073080;28;20187;-76
2023/12/03 03:39:50;;;;;;;18.60;6.57;;;;;;;;;;5072037;28;20191;-77
2023/12/03 03:42:18;;;;;;;15.17;7.03;;;;;;;;;;5073035;28;20517;-76
2023/12/03 03:44:44;;;;;;;18.63;6.63;;;;;;;;;;5072830;28;20208;-77
2023/12/03 03:47:13;;;;;;;23.73;7.10;;;;;;;;;;5072720;28;20191;-77
2023/12/03 03:49:40;;;;;;;16.50;6.07;;;;;;;;;;5073604;28;20188;-77
2023/12/03 03:52:07;;;;;;;15.67;6.60;;;;;;;;;;5074937;28;20226;-77
2023/12/03 03:54:39;;;;;;;18.40;7.47;;;;;;;;;;5075457;28;20199;-77
2023/12/03 03:57:07;;;;;;;25.10;7.60;;;;;;;;;;5075030;28;20244;-76
2023/12/03 03:59:34;;;;;;;16.87;6.87;;;;;;;;;;5075465;28;20206;-76
2023/12/03 04:02:01;;;;;;;17.33;6.43;;;;;;;;;;5075059;28;20605;-76
2023/12/03 04:04:29;;;;;;;20.93;7.77;;;;;;;;;;5076434;28;20210;-76
2023/12/03 04:06:56;;;;;;;20.43;8.77;;;;;;;;;;5076087;28;20198;-76
2023/12/03 04:09:23;;;;;;;24.50;8.73;;;;;;;;;;5076547;28;20193;-76
2023/12/03 04:11:50;;;;;;;24.80;8.87;;;;;;;;;;5076321;28;20226;-76
2023/12/03 04:14:18;;;;;;;17.63;6.77;;;;;;;;;;5076253;28;20191;-76
2023/12/03 04:16:46;;;;;;;26.27;8.13;;;;;;;;;;5076089;28;20199;-76
2023/12/03 04:19:13;;;;;;;18.27;7.73;;;;;;;;;;5076003;28;20203;-77
2023/12/03 04:21:40;;;;;;;16.97;8.60;;;;;;;;;;5071846;28;20659;-77
2023/12/03 04:24:07;;;;;;;28.03;7.93;;;;;;;;;;5073930;28;20231;-77
2023/12/03 04:26:35;;;;;;;20.00;8.30;;;;;;;;;;5066367;28;20204;-77
2023/12/03 04:29:02;;;;;;;18.13;7.00;;;;;;;;;;5066427;28;20198;-77
2023/12/03 04:31:29;;;;;;;22.90;7.40;;;;;;;;;;5065220;28;20616;-76
2023/12/03 04:33:56;;;;;;;19.47;6.87;;;;;;;;;;5064319;28;20637;-76
2023/12/03 04:36:24;;;;;;;24.43;8.63;;;;;;;;;;5065795;28;20195;-76
2023/12/03 04:38:52;;;;;;;16.73;7.13;;;;;;;;;;5063856;28;20242;-76
2023/12/03 04:41:20;;;;;;;19.43;7.50;;;;;;;;;;5063260;28;20563;-77
2023/12/03 04:43:48;;;;;;;21.27;7.80;;;;;;;;;;5063875;28;20200;-77
2023/12/03 04:46:15;;;;;;;23.50;6.93;;;;;;;;;;5064245;28;20264;-77
2023/12/03 04:48:42;;;;;;;22.93;8.50;;;;;;;;;;5063443;28;20196;-76
2023/12/03 04:51:13;;;;;;;12.70;6.20;;;;;;;;;;5063236;28;20191;-76
2023/12/03 04:53:40;;;;;;;14.07;6.63;;;;;;;;;;5068909;28;20274;-76
2023/12/03 04:56:08;;;;;;;19.83;7.07;;;;;;;;;;5075237;28;20203;-77
2023/12/03 04:58:35;;;;;;;19.87;9.53;;;;;;;;;;5073977;28;20286;-78
2023/12/03 05:01:03;;;;;;;17.40;8.23;;;;;;;;;;5078490;28;20555;-79
2023/12/03 05:03:30;;;;;;;22.07;7.77;;;;;;;;;;5095176;28;20219;-78
2023/12/03 05:05:57;;;;;;;15.83;5.93;;;;;;;;;;5094035;28;20203;-78
2023/12/03 05:08:24;;;;;;;25.87;8.13;;;;;;;;;;5095262;28;20198;-77
2023/12/03 05:10:51;;;;;;;17.07;8.23;;;;;;;;;;5085117;28;20195;-77
2023/12/03 05:13:18;;;;;;;13.33;6.30;;;;;;;;;;5073625;28;20253;-77
2023/12/03 05:15:46;;;;;;;12.73;5.43;;;;;;;;;;5082687;28;20210;-77
2023/12/03 05:18:13;;;;;;;25.03;8.30;;;;;;;;;;5095435;28;20295;-77
2023/12/03 05:20:41;;;;;;;23.73;7.10;;;;;;;;;;5095020;28;20199;-77
2023/12/03 05:23:08;;;;;;;15.00;6.00;;;;;;;;;;5094192;28;20258;-78
2023/12/03 05:25:35;;;;;;;13.80;6.13;;;;;;;;;;5086278;28;20743;-78
2023/12/03 05:28:02;;;;;;;18.20;8.03;;;;;;;;;;5080485;28;20203;-77
2023/12/03 05:30:29;;;;;;;20.00;8.23;;;;;;;;;;5074569;28;20676;-78
2023/12/03 05:32:57;;;;;;;18.70;6.47;;;;;;;;;;5078608;28;20226;-77
2023/12/03 05:35:25;;;;;;;17.50;7.90;;;;;;;;;;5073272;28;20199;-77
2023/12/03 05:37:52;;;;;;;12.17;6.73;;;;;;;;;;5074191;28;20293;-77
2023/12/03 05:40:19;;;;;;;15.10;7.13;;;;;;;;;;5074238;28;20187;-77
2023/12/03 05:42:46;;;;;;;10.37;5.97;;;;;;;;;;5074653;28;20206;-77
2023/12/03 05:45:14;;;;;;;14.40;6.63;;;;;;;;;;5072976;28;20199;-77
2023/12/03 05:47:41;;;;;;;15.00;6.67;;;;;;;;;;5073963;28;20210;-77
2023/12/03 05:50:08;;;;;;;25.23;8.93;;;;;;;;;;5074059;28;20199;-77
2023/12/03 05:52:35;;;;;;;22.30;7.13;;;;;;;;;;5072831;28;20215;-77
2023/12/03 05:55:03;;;;;;;12.37;6.03;;;;;;;;;;5073916;28;20195;-77
2023/12/03 05:57:30;;;;;;;16.10;6.80;;;;;;;;;;5073837;28;20233;-77
2023/12/03 05:59:57;;;;;;;15.57;6.23;;;;;;;;;;5073815;28;20245;-76
2023/12/03 06:02:25;;;;;;;14.43;7.93;;;;;;;;;;5072677;28;20295;-77
2023/12/03 06:04:52;;;;;;;17.53;7.70;;;;;;;;;;5056033;28;20199;-77
2023/12/03 06:07:19;;;;;;;16.23;6.97;;;;;;;;;;5073677;28;20195;-77
2023/12/03 06:09:46;;;;;;;13.37;6.27;;;;;;;;;;5078609;28;20235;-77
2023/12/03 06:12:13;;;;;;;12.77;6.60;;;;;;;;;;5074549;28;20225;-78
2023/12/03 06:14:41;;;;;;;19.23;7.60;;;;;;;;;;5074755;28;20198;-78
2023/12/03 06:17:08;;;;;;;19.77;7.37;;;;;;;;;;5077059;28;20210;-77
2023/12/03 06:19:35;;;;;;;13.67;6.27;;;;;;;;;;5043115;28;20563;-77
2023/12/03 06:22:02;;;;;;;16.17;7.77;;;;;;;;;;5061096;28;20188;-77
2023/12/03 06:24:30;;;;;;;12.90;5.73;;;;;;;;;;5064924;28;20230;-77
2023/12/03 06:26:57;;;;;;;15.23;6.47;;;;;;;;;;5065577;28;20195;-77
2023/12/03 06:29:24;;;;;;;17.20;7.37;;;;;;;;;;5069615;28;20273;-77
2023/12/03 06:31:51;;;;;;;13.07;6.50;;;;;;;;;;5064319;28;20195;-76
2023/12/03 06:34:18;;;;;;;18.23;6.63;;;;;;;;;;5086922;28;20202;-77
2023/12/03 06:36:46;;;;;;;12.97;4.53;;;;;;;;;;5066650;28;20238;-77
2023/12/03 06:39:13;;;;;;;11.30;5.90;;;;;;;;;;5055508;28;20220;-77
2023/12/03 06:41:40;;;;;;;16.83;6.23;;;;;;;;;;5072187;28;20250;-76
2023/12/03 06:44:07;;;;;;;15.00;6.30;;;;;;;;;;5068485;28;20221;-77
2023/12/03 06:46:41;;;;;;;9.97;4.53;;;;;;;;;;5061816;28;20237;-77
2023/12/03 06:49:10;;;;;;;8.87;4.67;;;;;;;;;;5062129;28;20227;-77
2023/12/03 06:51:38;;;;;;;10.37;5.43;;;;;;;;;;5060527;28;20314;-77
2023/12/03 06:54:06;;;;;;;15.43;6.30;;;;;;;;;;5054702;28;20227;-77
2023/12/03 06:56:34;;;;;;;9.53;4.60;;;;;;;;;;5052415;28;20244;-77
2023/12/03 06:59:01;;;;;;;12.73;5.07;;;;;;;;;;5052139;28;20216;-76
2023/12/03 07:01:28;;;;;;;11.10;5.23;;;;;;;;;;5058718;28;20227;-79
2023/12/03 07:03:55;;;;;;;16.27;5.57;;;;;;;;;;5072164;28;20257;-77
2023/12/03 07:06:22;;;;;;;11.07;5.40;;;;;;;;;;5071503;28;20223;-76
2023/12/03 07:08:49;;;;;;;10.50;5.57;;;;;;;;;;5072320;28;20231;-76
2023/12/03 07:11:16;;;;;;;11.23;5.40;;;;;;;;;;5072178;28;20239;-76
2023/12/03 07:13:44;;;;;;;16.53;6.43;;;;;;;;;;5072456;28;20238;-76
2023/12/03 07:16:11;;;;;;;18.33;6.23;;;;;;;;;;5071795;28;20235;-77
2023/12/03 07:18:42;;;;;;;14.20;6.37;;;;;;;;;;5072394;28;20235;-76
2023/12/03 07:21:11;;;;;;;14.30;5.00;;;;;;;;;;5069076;28;20261;-77
2023/12/03 07:23:38;;;;;;;24.17;7.47;;;;;;;;;;5061669;28;20699;-77
2023/12/03 07:26:09;;;;;;;21.33;8.30;;;;;;;;;;5064590;28;20324;-77
2023/12/03 07:28:37;;;;;;;31.63;9.07;;;;;;;;;;5069290;28;20223;-78
2023/12/03 07:31:04;;;;;;;20.43;8.53;;;;;;;;;;5082200;28;20525;-77
2023/12/03 07:33:32;;;;;;;23.13;8.23;;;;;;;;;;5077485;28;20250;-77
2023/12/03 07:35:59;;;;;;;15.90;7.57;;;;;;;;;;5057681;28;20629;-78
2023/12/03 07:38:28;;;;;;;16.20;7.23;;;;;;;;;;5082502;28;20237;-77
2023/12/03 07:40:55;;;;;;;18.50;8.23;;;;;;;;;;5079649;28;20212;-78
2023/12/03 07:43:23;;;;;;;16.63;8.20;;;;;;;;;;5075629;28;20239;-78
2023/12/03 07:45:50;;;;;;;15.70;8.13;;;;;;;;;;5077530;28;20246;-78
2023/12/03 07:48:17;;;;;;;18.93;7.03;;;;;;;;;;5084541;28;20231;-78
2023/12/03 07:50:44;;;;;;;18.33;7.60;;;;;;;;;;5068899;28;20609;-78
2023/12/03 07:53:12;;;;;;;14.33;7.63;;;;;;;;;;5074185;28;20234;-77
2023/12/03 07:55:39;;;;;;;23.40;8.87;;;;;;;;;;5082412;28;20302;-77
2023/12/03 07:58:07;;;;;;;16.30;7.47;;;;;;;;;;5084621;28;20676;-77
2023/12/03 08:00:34;;;;;;;19.07;7.70;;;;;;;;;;5085286;28;20306;-77
2023/12/03 08:03:02;;;;;;;24.73;9.03;;;;;;;;;;5093573;28;20307;-77
2023/12/03 08:05:29;;;;;;;18.50;7.33;;;;;;;;;;5088227;28;20676;-77
2023/12/03 08:07:57;;;;;;;22.63;8.00;;;;;;;;;;5081449;28;20692;-77
2023/12/03 08:10:24;;;;;;;20.27;7.73;;;;;;;;;;5072302;28;20215;-77
2023/12/03 08:12:51;;;;;;;20.83;8.87;;;;;;;;;;5072780;27;20568;-77
2023/12/03 08:15:18;;;;;;;18.77;7.97;;;;;;;;;;5055809;28;20220;-77
2023/12/03 08:17:46;;;;;;;15.80;7.00;;;;;;;;;;5066102;28;20224;-77
2023/12/03 08:20:13;;;;;;;16.97;7.13;;;;;;;;;;5074744;28;20219;-77
2023/12/03 08:22:40;;;;;;;19.73;7.77;;;;;;;;;;5066679;28;20232;-77
2023/12/03 08:25:08;;;;;;;23.43;8.80;;;;;;;;;;5062287;28;20235;-77
2023/12/03 08:27:38;;;;;;;17.07;7.90;;;;;;;;;;5065658;28;20588;-77
2023/12/03 08:30:06;;;;;;;19.80;8.43;;;;;;;;;;5067989;28;20211;-76
2023/12/03 08:32:33;;;;;;;18.90;7.90;;;;;;;;;;5068860;28;20243;-77
2023/12/03 08:35:00;;;;;;;23.50;10.00;;;;;;;;;;5061357;28;20630;-77
2023/12/03 08:37:28;;;;;;;20.50;7.70;;;;;;;;;;5053419;28;20219;-77
2023/12/03 08:39:55;;;;;;;20.50;8.73;;;;;;;;;;5054617;28;20651;-77
2023/12/03 08:42:22;;;;;;;19.40;7.87;;;;;;;;;;5059756;28;20234;-77
2023/12/03 08:44:49;;;;;;;23.13;8.43;;;;;;;;;;5060999;28;20231;-77
2023/12/03 08:47:20;;;;;;;21.43;10.60;;;;;;;;;;5071531;28;20219;-76
2023/12/03 08:49:47;;;;;;;26.67;10.10;;;;;;;;;;5067088;28;20228;-77
2023/12/03 08:52:15;;;;;;;24.60;10.30;;;;;;;;;;5071143;28;20683;-77
2023/12/03 08:54:43;;;;;;;29.20;10.20;;;;;;;;;;5057339;28;20315;-77
2023/12/03 08:57:10;;;;;;;31.63;10.47;;;;;;;;;;5070955;28;20227;-77
2023/12/03 08:59:38;;;;;;;26.60;10.27;;;;;;;;;;5057642;28;20294;-77
2023/12/03 09:02:05;;;;;;;21.50;9.50;;;;;;;;;;5072851;28;20223;-77
2023/12/03 09:04:32;;;;;;;27.57;10.97;;;;;;;;;;5061158;28;20232;-77
2023/12/03 09:07:00;;;;;;;26.37;10.40;;;;;;;;;;5053929;28;20274;-77
2023/12/03 09:09:27;;;;;;;23.40;9.13;;;;;;;;;;5055477;28;20235;-77
2023/12/03 09:11:55;;;;;;;23.27;10.43;;;;;;;;;;5064633;28;20230;-76
2023/12/03 09:14:25;;;;;;;18.03;8.30;;;;;;;;;;5074082;28;20321;-76
2023/12/03 09:16:53;;;;;;;27.93;10.00;;;;;;;;;;5073609;28;20684;-76
2023/12/03 09:19:20;;;;;;;17.10;8.87;;;;;;;;;;5071465;28;20227;-76
2023/12/03 09:21:50;;;;;;;19.23;8.23;;;;;;;;;;5065590;28;20227;-76
2023/12/03 09:24:18;;;;;;;15.67;8.20;;;;;;;;;;5062223;28;20231;-76
2023/12/03 09:26:47;;;;;;;26.43;9.47;;;;;;;;;;5061651;28;20691;-76
2023/12/03 09:29:14;;;;;;;23.67;8.37;;;;;;;;;;5061411;28;20673;-76
2023/12/03 09:31:42;;;;;;;20.37;9.20;;;;;;;;;;5061695;28;20223;-76
2023/12/03 09:34:09;;;;;;;23.20;9.13;;;;;;;;;;5062433;28;20584;-76
2023/12/03 09:36:36;;;;;;;24.47;9.47;;;;;;;;;;5062943;28;20269;-77
2023/12/03 09:39:04;;;;;;;21.43;9.90;;;;;;;;;;5064481;28;20247;-76
2023/12/03 09:41:35;;;;;;;19.90;8.07;;;;;;;;;;5064074;28;20216;-77
2023/12/03 09:44:08;;;;;;;27.43;10.53;;;;;;;;;;5057932;28;20227;-77
2023/12/03 09:46:38;;;;;;;22.20;9.50;;;;;;;;;;5073025;28;20219;-76
2023/12/03 09:49:09;;;;;;;27.23;10.10;;;;;;;;;;5063311;28;20319;-78
2023/12/03 09:51:40;;;;;;;19.73;9.17;;;;;;;;;;5064149;28;20648;-76
2023/12/03 09:54:09;;;;;;;28.13;11.80;;;;;;;;;;5062242;28;20322;-76
2023/12/03 09:56:40;;;;;;;34.00;11.83;;;;;;;;;;5042794;28;20274;-77
2023/12/03 09:59:09;;;;;;;27.20;11.50;;;;;;;;;;5065890;28;20235;-76
2023/12/03 10:01:38;;;;;;;22.60;10.77;;;;;;;;;;5065076;28;20250;-76
2023/12/03 10:04:06;;;;;;;26.00;10.67;;;;;;;;;;5062542;28;20244;-77
2023/12/03 10:06:34;;;;;;;25.03;11.27;;;;;;;;;;5069079;28;20229;-76
2023/12/03 10:09:03;;;;;;;30.27;11.57;;;;;;;;;;5055124;28;20331;-77
2023/12/03 10:11:38;;;;;;;32.27;12.53;;;;;;;;;;5059799;28;20238;-77
2023/12/03 10:14:09;;;;;;;26.43;10.70;;;;;;;;;;5052875;28;20318;-76
2023/12/03 10:16:38;;;;;;;31.67;11.93;;;;;;;;;;5071372;28;20218;-76
2023/12/03 10:19:06;;;;;;;27.73;11.90;;;;;;;;;;5072015;28;20230;-76
2023/12/03 10:21:35;;;;;;;24.67;11.50;;;;;;;;;;5064333;28;20239;-76
2023/12/03 10:24:03;;;;;;;19.50;8.93;;;;;;;;;;5052831;28;20235;-76
2023/12/03 10:26:31;;;;;;;33.27;11.93;;;;;;;;;;5053127;28;20227;-76
2023/12/03 10:28:58;;;;;;;32.87;12.33;;;;;;;;;;5058814;28;20214;-76
2023/12/03 10:31:30;;;;;;;22.83;9.97;;;;;;;;;;5060101;28;20566;-76
2023/12/03 10:33:57;;;;;;;21.73;11.40;;;;;;;;;;5060999;28;20238;-77
2023/12/03 10:36:29;;;;;;;33.87;12.73;;;;;;;;;;5057169;28;20253;-78
2023/12/03 10:38:56;;;;;;;24.00;11.37;;;;;;;;;;5062698;28;20219;-78
2023/12/03 10:41:24;;;;;;;21.50;10.00;;;;;;;;;;5060709;28;20230;-76
2023/12/03 10:43:51;;;;;;;25.50;11.00;;;;;;;;;;5058951;28;20233;-77
2023/12/03 10:46:18;;;;;;;25.17;12.10;;;;;;;;;;5060501;28;20704;-75
2023/12/03 10:48:48;;;;;;;23.97;11.10;;;;;;;;;;5060075;28;20273;-75
2023/12/03 10:51:15;;;;;;;33.03;12.77;;;;;;;;;;5051578;28;20242;-76
2023/12/03 10:53:42;;;;;;;28.17;10.47;;;;;;;;;;5071660;28;20251;-79
2023/12/03 10:56:10;;;;;;;31.57;13.33;;;;;;;;;;5073232;28;20235;-78
2023/12/03 10:58:38;;;;;;;26.83;12.37;;;;;;;;;;5072132;28;20238;-77
2023/12/03 11:01:08;;;;;;;34.10;13.80;;;;;;;;;;5074597;28;20235;-77
2023/12/03 11:03:54;;;;;;;1999.90;999.90;;;;;;;;;;5059012;28;20326;-77
2023/12/03 11:06:23;;;;;;;32.13;14.47;;;;;;;;;;5076896;28;20231;-77
2023/12/03 11:08:55;;;;;;;29.23;13.47;;;;;;;;;;5075417;28;20593;-77
2023/12/03 11:11:22;;;;;;;40.73;16.17;;;;;;;;;;5075759;28;20599;-77
2023/12/03 11:13:55;;;;;;;32.67;14.23;;;;;;;;;;5070728;28;20231;-77
2023/12/03 11:16:24;;;;;;;40.57;13.83;;;;;;;;;;5056883;28;20273;-77
2023/12/03 11:18:58;;;;;;;33.83;14.67;;;;;;;;;;5054951;28;20790;-76
2023/12/03 11:21:44;;;;;;;34.03;14.27;;;;;;;;;;5055290;28;20238;-77
2023/12/03 11:24:42;;;;;;;30.77;14.03;;;;;;;;;;5055450;28;20232;-77
2023/12/03 11:27:12;;;;;;;32.80;13.40;;;;;;;;;;5056563;28;20228;-76
2023/12/03 11:29:49;;;;;;;35.53;14.23;;;;;;;;;;5055928;28;20267;-77
2023/12/03 11:32:18;;;;;;;38.67;15.87;;;;;;;;;;5054575;28;20258;-76
2023/12/03 11:35:07;;;;;;;38.67;14.97;;;;;;;;;;5055375;28;20227;-77
2023/12/03 11:37:41;;;;;;;40.77;16.03;;;;;;;;;;5055202;28;20222;-76
2023/12/03 11:40:12;;;;;;;48.70;17.97;;;;;;;;;;5055009;28;20590;-77
2023/12/03 11:42:44;;;;;;;58.23;19.73;;;;;;;;;;5055082;28;20302;-76
2023/12/03 11:45:18;;;;;;;39.10;14.90;;;;;;;;;;5055670;28;20231;-77
2023/12/03 11:48:08;;;;;;;35.13;14.87;;;;;;;;;;5063891;28;20234;-77
2023/12/03 11:50:40;;;;;;;37.93;15.73;;;;;;;;;;5068348;28;20250;-77
2023/12/03 11:53:09;;;;;;;47.50;18.47;;;;;;;;;;5055539;28;20244;-77
2023/12/03 11:55:39;;;;;;;51.83;22.80;;;;;;;;;;5055811;28;20252;-77
2023/12/03 11:58:08;;;;;;;43.87;16.57;;;;;;;;;;5055225;28;20468;-77
2023/12/03 12:00:37;;;;;;;51.63;18.83;;;;;;;;;;5054566;28;20220;-77
2023/12/03 12:03:05;;;;;;;52.87;17.40;;;;;;;;;;5053985;28;20251;-76
2023/12/03 12:05:41;;;;;;;36.27;15.50;;;;;;;;;;5055502;28;20692;-77
2023/12/03 12:08:09;;;;;;;37.03;15.43;;;;;;;;;;5056163;28;20640;-77
2023/12/03 12:10:38;;;;;;;39.33;16.20;;;;;;;;;;5055455;28;20319;-77
2023/12/03 12:13:06;;;;;;;55.70;20.30;;;;;;;;;;5073498;28;20220;-77
2023/12/03 12:15:33;;;;;;;41.43;16.27;;;;;;;;;;5075725;28;20234;-77
2023/12/03 12:18:11;;;;;;;41.40;16.70;;;;;;;;;;5075059;28;20223;-77
2023/12/03 12:20:39;;;;;;;37.20;16.43;;;;;;;;;;5023598;28;20326;-77
2023/12/03 12:23:10;;;;;;;45.00;18.57;;;;;;;;;;5075441;28;20278;-78
2023/12/03 12:25:39;;;;;;;33.63;15.60;;;;;;;;;;5069080;28;20297;-77
2023/12/03 12:28:07;;;;;;;42.33;15.97;;;;;;;;;;5079917;28;20699;-77
2023/12/03 12:30:35;;;;;;;37.57;15.83;;;;;;;;;;5065052;28;20233;-77
2023/12/03 12:33:04;;;;;;;42.40;18.73;;;;;;;;;;5060745;28;20234;-77
2023/12/03 12:35:33;;;;;;;43.87;16.53;;;;;;;;;;5062095;28;20235;-77
2023/12/03 12:38:03;;;;;;;57.40;18.33;;;;;;;;;;5061979;28;20235;-77
2023/12/03 12:40:32;;;;;;;42.10;16.83;;;;;;;;;;5060653;28;20212;-77
2023/12/03 12:43:09;;;;;;;45.13;21.13;;;;;;;;;;5056651;28;20224;-77
2023/12/03 12:45:39;;;;;;;42.23;17.53;;;;;;;;;;5041509;28;20723;-77
2023/12/03 12:48:22;;;;;;;55.43;19.07;;;;;;;;;;5068789;28;20237;-77
2023/12/03 12:50:51;;;;;;;56.07;20.83;;;;;;;;;;5062253;28;20204;-77
2023/12/03 12:53:19;;;;;;;49.37;20.07;;;;;;;;;;5059720;28;20223;-77
2023/12/03 12:55:47;;;;;;;49.60;19.87;;;;;;;;;;5063733;28;21567;-77
2023/12/03 12:58:14;;;;;;;56.77;19.90;;;;;;;;;;5061383;28;20228;-77
2023/12/03 13:00:42;;;;;;;46.13;18.87;;;;;;;;;;5067872;28;20223;-77
2023/12/03 13:03:09;;;;;;;49.27;19.80;;;;;;;;;;5064831;28;20325;-77
2023/12/03 13:05:36;;;;;;;53.67;20.40;;;;;;;;;;5060812;28;20599;-76
2023/12/03 13:08:04;;;;;;;58.10;19.93;;;;;;;;;;5064610;28;20224;-77
2023/12/03 13:10:34;;;;;;;52.50;20.30;;;;;;;;;;5061606;28;20215;-77
2023/12/03 13:13:01;;;;;;;45.27;17.97;;;;;;;;;;5063055;28;20228;-77
2023/12/03 13:15:29;;;;;;;40.00;16.00;;;;;;;;;;5056516;28;20227;-77
2023/12/03 13:17:59;;;;;;;57.23;18.97;;;;;;;;;;5053917;28;20238;-77
2023/12/03 13:20:42;;;;;;;59.17;19.73;;;;;;;;;;5062897;28;20224;-77
2023/12/03 13:23:09;;;;;;;42.07;16.57;;;;;;;;;;5071823;28;20825;-76
2023/12/03 13:25:36;;;;;;;106.93;35.27;;;;;;;;;;5067691;28;20223;-76
2023/12/03 13:28:03;;;;;;;51.03;19.53;;;;;;;;;;5073226;28;20692;-77
2023/12/03 13:30:31;;;;;;;55.40;19.90;;;;;;;;;;5071603;28;20228;-76
2023/12/03 13:32:58;;;;;;;1999.90;999.90;;;;;;;;;;5060716;28;20261;-77
2023/12/03 13:35:26;;;;;;;54.60;20.60;;;;;;;;;;5063640;28;20237;-77
2023/12/03 13:37:53;;;;;;;50.67;20.23;;;;;;;;;;5056456;28;20246;-77
2023/12/03 13:40:21;;;;;;;59.27;19.87;;;;;;;;;;5059488;28;20712;-77
2023/12/03 13:42:54;;;;;;;48.37;20.20;;;;;;;;;;5054641;28;20648;-77
2023/12/03 13:45:22;;;;;;;43.40;18.00;;;;;;;;;;5066540;28;20219;-77
2023/12/03 13:47:50;;;;;;;48.70;19.93;;;;;;;;;;5060796;28;21105;-77
2023/12/03 13:50:17;;;;;;;53.37;19.37;;;;;;;;;;5062752;28;20523;-77
2023/12/03 13:52:44;;;;;;;56.93;20.87;;;;;;;;;;5058830;28;20232;-77
2023/12/03 13:55:13;;;;;;;51.23;19.57;;;;;;;;;;5073351;28;20238;-77
2023/12/03 13:57:40;;;;;;;60.27;21.93;;;;;;;;;;5071313;28;20245;-77
2023/12/03 14:00:08;;;;;;;57.40;20.83;;;;;;;;;;5058976;28;20269;-77
2023/12/03 14:02:38;;;;;;;62.80;22.27;;;;;;;;;;5061385;28;20711;-77
2023/12/03 14:05:08;;;;;;;54.47;21.17;;;;;;;;;;5059170;28;20246;-77
2023/12/03 14:07:40;;;;;;;53.77;20.90;;;;;;;;;;5068368;28;20231;-77
2023/12/03 14:10:11;;;;;;;68.30;25.50;;;;;;;;;;5055037;28;20243;-77
2023/12/03 14:12:38;;;;;;;60.43;21.73;;;;;;;;;;5072919;28;20285;-77
2023/12/03 14:15:06;;;;;;;46.27;19.37;;;;;;;;;;5072123;28;20234;-77
2023/12/03 14:17:34;;;;;;;50.10;21.20;;;;;;;;;;5069600;28;20212;-77
2023/12/03 14:20:04;;;;;;;55.30;23.80;;;;;;;;;;5061599;28;20787;-77
2023/12/03 14:22:32;;;;;;;52.10;22.03;;;;;;;;;;5064720;28;20215;-77
2023/12/03 14:24:59;;;;;;;56.07;21.43;;;;;;;;;;5060774;28;20243;-77
2023/12/03 14:27:27;;;;;;;64.67;22.43;;;;;;;;;;5057783;28;20220;-78
2023/12/03 14:29:54;;;;;;;70.17;24.80;;;;;;;;;;5055224;28;20242;-78
2023/12/03 14:32:21;;;;;;;62.53;23.60;;;;;;;;;;5060821;28;20225;-77